Time;durP1;ratioP1;P1;durP2;ratioP2;P2;SDS_P1;SDS_P2;PMS_P1;PMS_P2;Temp;Humidity;BMP_temperature;BMP_pressure;BME280_temperature;BME280_humidity;BME280_pressure;Samples;Min_cycle;Max_cycle;Signal;HPM_P1;HPM_P2
2021/03/02 00:02:09;;;;;;;29.40;16.33;;;2.80;99.90;;;;;;5082769;28;20455;-50
2021/03/02 00:04:36;;;;;;;29.10;14.80;;;2.90;99.90;;;;;;5089152;28;20860;-50
2021/03/02 00:07:04;;;;;;;32.87;17.20;;;2.90;99.90;;;;;;5092382;28;20982;-50
2021/03/02 00:09:31;;;;;;;27.10;15.13;;;2.90;99.90;;;;;;5093420;28;20523;-50
2021/03/02 00:11:58;;;;;;;30.33;16.30;;;2.90;99.90;;;;;;5092959;28;20811;-50
2021/03/02 00:14:25;;;;;;;28.47;16.40;;;2.90;99.90;;;;;;5092778;28;20470;-50
2021/03/02 00:16:56;;;;;;;34.90;16.90;;;2.80;99.90;;;;;;5093127;28;20458;-50
2021/03/02 00:19:28;;;;;;;28.20;16.30;;;2.80;99.90;;;;;;5087214;28;20945;-50
2021/03/02 00:22:06;;;;;;;31.20;15.40;;;2.80;99.90;;;;;;5082495;28;20458;-51
2021/03/02 00:24:36;;;;;;;30.07;15.37;;;2.70;99.90;;;;;;5072581;28;20483;-49
2021/03/02 00:27:05;;;;;;;28.07;15.20;;;2.80;99.90;;;;;;5085624;28;20861;-50
2021/03/02 00:29:32;;;;;;;29.17;15.93;;;2.70;99.90;;;;;;5092795;28;20450;-50
2021/03/02 00:31:59;;;;;;;30.97;16.93;;;2.70;99.90;;;;;;5092977;28;20450;-50
2021/03/02 00:34:26;;;;;;;32.93;16.60;;;2.70;99.90;;;;;;5091731;28;20575;-50
2021/03/02 00:36:52;;;;;;;31.70;15.67;;;2.50;99.90;;;;;;5092760;28;20445;-50
2021/03/02 00:39:19;;;;;;;37.37;16.60;;;2.40;99.90;;;;;;5092624;28;20438;-50
2021/03/02 00:41:46;;;;;;;28.70;15.63;;;2.00;99.90;;;;;;5092599;28;20827;-50
2021/03/02 00:44:13;;;;;;;31.93;16.90;;;2.00;99.90;;;;;;5092496;28;20900;-50
2021/03/02 00:46:40;;;;;;;28.80;16.57;;;2.10;99.90;;;;;;5092804;28;20806;-51
2021/03/02 00:49:07;;;;;;;33.97;17.03;;;2.30;99.90;;;;;;5092387;28;20454;-50
2021/03/02 00:51:33;;;;;;;28.80;15.60;;;2.30;99.90;;;;;;5089850;28;20448;-51
2021/03/02 00:54:00;;;;;;;28.17;15.60;;;2.30;99.90;;;;;;5092159;28;20462;-50
2021/03/02 00:56:27;;;;;;;32.10;16.80;;;2.40;99.90;;;;;;5092244;28;20454;-50
2021/03/02 00:58:53;;;;;;;30.33;16.87;;;2.30;99.90;;;;;;5092693;28;20460;-50
2021/03/02 01:01:20;;;;;;;28.60;15.90;;;2.30;99.90;;;;;;5092375;28;20477;-50
2021/03/02 01:03:47;;;;;;;36.03;17.27;;;2.40;99.90;;;;;;5091777;28;20485;-51
2021/03/02 01:06:14;;;;;;;30.97;15.93;;;2.40;99.90;;;;;;5091878;28;21083;-50
2021/03/02 01:08:40;;;;;;;29.20;15.60;;;2.40;99.90;;;;;;5081645;28;20801;-50
2021/03/02 01:11:07;;;;;;;29.13;15.33;;;2.40;99.90;;;;;;5079728;28;20449;-51
2021/03/02 01:13:33;;;;;;;30.10;16.50;;;2.30;99.90;;;;;;5092043;28;20477;-50
2021/03/02 01:16:00;;;;;;;33.70;16.93;;;2.20;99.90;;;;;;5091748;28;20450;-50
2021/03/02 01:18:28;;;;;;;33.83;16.30;;;2.00;99.90;;;;;;5091964;28;20954;-50
2021/03/02 01:20:54;;;;;;;32.43;15.40;;;2.00;99.90;;;;;;5091901;28;20450;-51
2021/03/02 01:23:21;;;;;;;29.47;15.33;;;2.10;99.90;;;;;;5091553;28;20485;-51
2021/03/02 01:25:47;;;;;;;29.93;15.93;;;1.90;99.90;;;;;;5079727;28;20450;-50
2021/03/02 01:28:14;;;;;;;25.90;15.53;;;2.00;99.90;;;;;;5092066;28;20454;-51
2021/03/02 01:30:41;;;;;;;28.50;15.80;;;1.90;99.90;;;;;;5091865;28;20515;-50
2021/03/02 01:33:08;;;;;;;30.60;16.70;;;2.00;99.90;;;;;;5091353;28;20449;-51
2021/03/02 01:35:35;;;;;;;34.10;16.87;;;2.00;99.90;;;;;;5091393;28;20537;-51
2021/03/02 01:38:02;;;;;;;29.27;16.37;;;1.90;99.90;;;;;;5091823;28;20453;-50
2021/03/02 01:40:29;;;;;;;31.10;16.53;;;1.90;99.90;;;;;;5090948;28;20454;-49
2021/03/02 01:42:55;;;;;;;29.07;15.73;;;1.90;99.90;;;;;;5091539;28;21007;-50
2021/03/02 01:45:22;;;;;;;28.97;15.73;;;1.80;99.90;;;;;;5090985;28;21002;-50
2021/03/02 01:47:50;;;;;;;31.60;16.30;;;1.70;99.90;;;;;;5091453;28;20453;-50
2021/03/02 01:50:18;;;;;;;27.73;15.23;;;1.70;99.90;;;;;;5091251;28;20457;-49
2021/03/02 01:52:45;;;;;;;32.20;16.53;;;1.70;99.90;;;;;;5091263;28;20453;-50
2021/03/02 01:55:14;;;;;;;28.43;15.73;;;1.70;99.90;;;;;;5091421;28;20544;-50
2021/03/02 01:57:40;;;;;;;26.30;15.30;;;1.80;99.90;;;;;;5090788;28;20455;-50
2021/03/02 02:00:12;;;;;;;31.20;16.03;;;1.60;99.90;;;;;;5076387;28;20937;-49
2021/03/02 02:02:48;;;;;;;31.70;15.97;;;1.70;99.90;;;;;;5071033;28;20453;-50
2021/03/02 02:05:15;;;;;;;27.57;15.63;;;1.70;99.90;;;;;;5071273;28;20480;-50
2021/03/02 02:07:44;;;;;;;35.60;17.13;;;1.70;99.90;;;;;;5090434;28;20455;-50
2021/03/02 02:10:16;;;;;;;33.90;16.97;;;1.60;99.90;;;;;;5091006;28;20457;-50
2021/03/02 02:12:47;;;;;;;34.03;16.17;;;1.60;99.90;;;;;;5091137;28;20831;-49
2021/03/02 02:15:18;;;;;;;32.30;15.10;;;1.60;99.90;;;;;;5089652;28;20863;-50
2021/03/02 02:17:50;;;;;;;34.63;16.20;;;1.70;99.90;;;;;;5090765;28;20482;-50
2021/03/02 02:20:25;;;;;;;26.57;15.00;;;1.70;99.90;;;;;;5091407;28;20441;-51
2021/03/02 02:23:07;;;;;;;33.13;16.63;;;1.60;99.90;;;;;;5090927;28;20454;-50
2021/03/02 02:25:50;;;;;;;30.00;16.53;;;1.60;99.90;;;;;;5091279;28;20453;-50
2021/03/02 02:28:20;;;;;;;31.53;15.50;;;1.60;99.90;;;;;;5089510;28;20454;-50
2021/03/02 02:30:52;;;;;;;36.17;17.77;;;1.60;99.90;;;;;;5089483;28;20507;-50
2021/03/02 02:33:20;;;;;;;38.97;17.97;;;1.50;99.90;;;;;;5089556;28;20473;-50
2021/03/02 02:35:49;;;;;;;33.00;17.13;;;1.50;99.90;;;;;;5091328;28;20453;-50
2021/03/02 02:38:18;;;;;;;37.23;16.80;;;1.50;99.90;;;;;;5091285;28;20453;-50
2021/03/02 02:40:45;;;;;;;30.80;16.50;;;1.30;99.90;;;;;;5090347;28;20524;-50
2021/03/02 02:43:12;;;;;;;29.50;16.80;;;1.30;99.90;;;;;;5090553;28;20562;-50
2021/03/02 02:45:40;;;;;;;32.63;16.47;;;1.40;99.90;;;;;;5090543;28;20819;-51
2021/03/02 02:48:09;;;;;;;37.50;17.93;;;1.30;99.90;;;;;;5090892;28;20450;-50
2021/03/02 02:50:36;;;;;;;30.37;17.57;;;1.30;99.90;;;;;;5090907;28;20874;-51
2021/03/02 02:53:04;;;;;;;29.77;16.27;;;1.30;99.90;;;;;;5090801;28;20457;-50
2021/03/02 02:55:35;;;;;;;32.80;17.07;;;1.20;99.90;;;;;;5082772;28;21010;-50
2021/03/02 02:58:04;;;;;;;31.40;16.40;;;1.30;99.90;;;;;;5073810;28;20447;-50
2021/03/02 03:00:33;;;;;;;33.67;15.80;;;1.30;99.90;;;;;;5091218;28;20449;-50
2021/03/02 03:03:04;;;;;;;31.17;16.60;;;1.30;99.90;;;;;;5076549;28;20972;-50
2021/03/02 03:05:33;;;;;;;37.00;16.93;;;1.20;99.90;;;;;;5077174;28;20808;-50
2021/03/02 03:08:07;;;;;;;34.93;17.93;;;1.20;99.90;;;;;;5090586;28;20537;-51
2021/03/02 03:10:36;;;;;;;28.53;16.57;;;1.00;99.90;;;;;;5090936;28;20511;-51
2021/03/02 03:13:05;;;;;;;29.60;15.70;;;1.10;99.90;;;;;;5090784;28;20446;-50
2021/03/02 03:15:33;;;;;;;30.97;15.83;;;1.10;99.90;;;;;;5077176;22;20495;-50
2021/03/02 03:18:06;;;;;;;35.10;17.00;;;1.10;99.90;;;;;;5049195;28;20455;-49
2021/03/02 03:20:33;;;;;;;28.57;16.30;;;1.30;99.90;;;;;;5049795;28;20949;-49
2021/03/02 03:23:01;;;;;;;33.27;16.87;;;1.20;99.90;;;;;;5050078;28;20962;-50
2021/03/02 03:25:28;;;;;;;33.07;16.80;;;1.20;99.90;;;;;;5049605;28;20475;-50
2021/03/02 03:27:56;;;;;;;34.23;15.93;;;1.20;99.90;;;;;;5049955;28;20450;-50
2021/03/02 03:30:25;;;;;;;29.73;14.83;;;1.20;99.90;;;;;;5049788;28;20458;-49
2021/03/02 03:32:55;;;;;;;33.67;17.63;;;1.20;99.90;;;;;;5049765;28;20831;-50
2021/03/02 03:35:24;;;;;;;34.80;16.77;;;1.10;99.90;;;;;;5050053;28;20470;-49
2021/03/02 03:37:51;;;;;;;34.53;16.20;;;1.20;99.90;;;;;;5049965;28;20996;-50
2021/03/02 03:40:17;;;;;;;36.20;17.07;;;1.00;99.90;;;;;;5054003;28;20443;-49
2021/03/02 03:42:44;;;;;;;32.97;16.00;;;1.00;99.90;;;;;;5053209;28;20451;-49
2021/03/02 03:45:12;;;;;;;35.40;17.13;;;0.90;99.90;;;;;;5053353;28;20498;-49
2021/03/02 03:47:39;;;;;;;32.70;16.03;;;0.90;99.90;;;;;;5050486;28;20459;-49
2021/03/02 03:50:08;;;;;;;34.33;16.97;;;0.60;99.90;;;;;;5052870;28;20452;-50
2021/03/02 03:52:39;;;;;;;28.63;15.50;;;0.50;99.90;;;;;;5053276;28;21006;-50
2021/03/02 03:55:09;;;;;;;31.13;16.17;;;0.70;99.90;;;;;;5041250;28;21011;-50
2021/03/02 03:57:36;;;;;;;32.77;16.30;;;0.70;99.90;;;;;;5053322;28;20447;-50
2021/03/02 04:00:07;;;;;;;30.43;17.43;;;0.60;99.90;;;;;;5053588;28;20533;-50
2021/03/02 04:02:34;;;;;;;34.63;16.50;;;0.60;99.90;;;;;;5053255;28;20453;-50
2021/03/02 04:05:04;;;;;;;34.73;16.90;;;0.70;99.90;;;;;;5035156;28;20494;-50
2021/03/02 04:07:32;;;;;;;32.87;16.03;;;0.80;99.90;;;;;;5049965;28;20453;-49
2021/03/02 04:10:00;;;;;;;27.93;15.80;;;0.80;99.90;;;;;;5052766;28;20459;-49
2021/03/02 04:12:36;;;;;;;34.73;15.73;;;0.80;99.90;;;;;;5053032;28;20451;-50
2021/03/02 04:15:04;;;;;;;29.10;16.27;;;0.80;99.90;;;;;;5052852;28;20462;-49
2021/03/02 04:17:30;;;;;;;33.47;16.90;;;0.80;99.90;;;;;;5052909;28;20806;-49
2021/03/02 04:19:59;;;;;;;29.20;16.60;;;0.70;99.90;;;;;;5052352;28;20509;-49
2021/03/02 04:22:25;;;;;;;33.60;17.17;;;0.70;99.90;;;;;;5053014;28;20952;-49
2021/03/02 04:24:52;;;;;;;32.27;16.30;;;0.50;99.90;;;;;;5052938;28;20490;-49
2021/03/02 04:27:19;;;;;;;34.37;16.40;;;0.50;99.90;;;;;;5052291;28;20449;-49
2021/03/02 04:29:46;;;;;;;32.90;16.40;;;0.70;99.90;;;;;;5052903;28;20984;-49
2021/03/02 04:32:12;;;;;;;29.93;15.43;;;0.70;99.90;;;;;;5052229;28;20454;-49
2021/03/02 04:34:39;;;;;;;30.70;15.93;;;0.70;99.90;;;;;;5052644;28;20956;-49
2021/03/02 04:37:05;;;;;;;31.30;15.10;;;0.70;99.90;;;;;;5051970;28;20454;-49
2021/03/02 04:39:32;;;;;;;32.17;15.80;;;0.70;99.90;;;;;;5052242;28;20454;-49
2021/03/02 04:41:58;;;;;;;28.70;15.50;;;0.70;99.90;;;;;;5052358;28;20508;-49
2021/03/02 04:44:26;;;;;;;30.33;15.83;;;0.70;99.90;;;;;;5051780;28;20845;-50
2021/03/02 04:46:52;;;;;;;29.50;14.50;;;0.70;99.90;;;;;;5052646;28;20451;-49
2021/03/02 04:49:19;;;;;;;25.70;14.73;;;0.70;99.90;;;;;;5052334;28;21123;-49
2021/03/02 04:51:46;;;;;;;32.57;15.20;;;0.60;99.90;;;;;;5051804;28;20509;-49
2021/03/02 04:54:12;;;;;;;33.30;15.53;;;0.60;99.90;;;;;;5046020;28;20470;-50
2021/03/02 04:56:39;;;;;;;31.10;16.50;;;0.60;99.90;;;;;;5044541;28;20461;-49
2021/03/02 04:59:05;;;;;;;31.10;14.47;;;0.60;99.90;;;;;;5032622;28;20499;-49
2021/03/02 05:01:33;;;;;;;29.50;16.10;;;0.40;99.90;;;;;;5045575;28;20455;-48
2021/03/02 05:04:00;;;;;;;27.43;15.07;;;0.50;99.90;;;;;;5051950;28;21089;-49
2021/03/02 05:06:26;;;;;;;34.00;16.53;;;0.50;99.90;;;;;;5048192;28;20458;-48
2021/03/02 05:08:53;;;;;;;31.10;17.30;;;0.40;99.90;;;;;;5038324;28;20447;-49
2021/03/02 05:11:20;;;;;;;33.43;17.47;;;0.20;99.90;;;;;;5045604;28;20451;-49
2021/03/02 05:13:46;;;;;;;28.47;15.70;;;0.30;99.90;;;;;;5045532;28;20507;-48
2021/03/02 05:16:13;;;;;;;26.97;15.10;;;0.30;99.90;;;;;;5051610;28;20557;-50
2021/03/02 05:18:41;;;;;;;32.60;15.37;;;0.30;99.90;;;;;;5036357;28;20454;-49
2021/03/02 05:21:08;;;;;;;27.97;15.97;;;0.40;99.90;;;;;;5052234;28;20508;-49
2021/03/02 05:23:34;;;;;;;29.50;15.47;;;0.30;99.90;;;;;;5051531;28;20479;-49
2021/03/02 05:26:01;;;;;;;25.97;15.47;;;0.40;99.90;;;;;;5047079;28;20542;-49
2021/03/02 05:28:28;;;;;;;27.73;15.57;;;0.30;99.90;;;;;;5050778;28;20965;-50
2021/03/02 05:30:54;;;;;;;31.43;16.70;;;0.40;99.90;;;;;;5042758;28;21073;-49
2021/03/02 05:33:21;;;;;;;28.53;16.03;;;0.30;99.90;;;;;;5043145;28;20444;-49
2021/03/02 05:35:49;;;;;;;32.10;15.80;;;0.30;99.90;;;;;;5042938;28;20525;-49
2021/03/02 05:38:15;;;;;;;27.73;15.00;;;0.40;99.90;;;;;;5051824;28;20462;-49
2021/03/02 05:40:42;;;;;;;27.13;15.73;;;0.40;99.90;;;;;;5038837;28;20463;-48
2021/03/02 05:43:10;;;;;;;29.23;15.60;;;0.00;99.90;;;;;;5031624;28;20535;-49
2021/03/02 05:45:37;;;;;;;31.37;15.23;;;0.10;99.90;;;;;;5031278;28;20483;-49
2021/03/02 05:48:09;;;;;;;27.90;14.40;;;0.20;99.90;;;;;;5031882;28;20457;-49
2021/03/02 05:50:36;;;;;;;25.00;13.20;;;0.10;99.90;;;;;;5031683;28;20451;-49
2021/03/02 05:53:04;;;;;;;25.80;14.30;;;0.00;99.90;;;;;;5031516;28;20991;-49
2021/03/02 05:55:34;;;;;;;26.50;13.93;;;0.00;99.90;;;;;;5037950;28;20479;-49
2021/03/02 05:58:02;;;;;;;28.60;14.80;;;-0.10;99.90;;;;;;5051341;28;20453;-50
2021/03/02 06:00:29;;;;;;;26.40;14.70;;;-0.10;99.90;;;;;;5050455;28;20524;-50
2021/03/02 06:02:56;;;;;;;31.33;15.50;;;-0.20;99.90;;;;;;5045930;28;20444;-50
2021/03/02 06:05:22;;;;;;;29.10;14.50;;;-0.20;99.90;;;;;;5030919;28;20486;-50
2021/03/02 06:07:49;;;;;;;28.63;15.50;;;-0.10;99.90;;;;;;5031270;28;20836;-49
2021/03/02 06:10:17;;;;;;;31.10;16.20;;;-0.20;99.90;;;;;;5048660;28;20452;-49
2021/03/02 06:12:51;;;;;;;33.17;17.10;;;-0.50;99.90;;;;;;5042473;28;20826;-50
2021/03/02 06:15:19;;;;;;;33.93;16.93;;;-0.30;99.90;;;;;;5038800;28;20481;-49
2021/03/02 06:17:46;;;;;;;32.97;15.83;;;-0.30;99.90;;;;;;5050958;28;20466;-50
2021/03/02 06:20:20;;;;;;;33.73;16.33;;;-0.40;99.90;;;;;;5050302;28;20454;-50
2021/03/02 06:22:47;;;;;;;35.60;16.53;;;-0.30;99.90;;;;;;5050719;28;20535;-49
2021/03/02 06:25:31;;;;;;;31.17;17.03;;;-0.20;99.90;;;;;;5044874;28;20991;-49
2021/03/02 06:27:58;;;;;;;31.63;15.40;;;-0.10;99.90;;;;;;5050474;28;20449;-48
2021/03/02 06:30:25;;;;;;;34.40;16.63;;;-0.10;99.90;;;;;;5048110;28;20607;-49
2021/03/02 06:32:56;;;;;;;28.23;15.70;;;-0.10;99.90;;;;;;5050810;28;20457;-50
2021/03/02 06:35:30;;;;;;;30.20;15.43;;;0.00;99.90;;;;;;5050130;28;20470;-50
2021/03/02 06:37:57;;;;;;;26.60;15.57;;;0.10;99.90;;;;;;5049560;28;20514;-50
2021/03/02 06:40:38;;;;;;;25.57;15.07;;;0.20;99.90;;;;;;5048363;28;20446;-49
2021/03/02 06:43:05;;;;;;;27.90;16.90;;;0.20;99.90;;;;;;5050631;28;20450;-50
2021/03/02 06:45:32;;;;;;;31.40;16.47;;;0.30;99.90;;;;;;5036716;28;20482;-50
2021/03/02 06:48:04;;;;;;;31.80;15.90;;;0.20;99.90;;;;;;5030914;28;20450;-50
2021/03/02 06:50:38;;;;;;;39.60;17.50;;;0.40;99.90;;;;;;5029874;28;20451;-50
2021/03/02 06:53:12;;;;;;;28.60;15.63;;;0.70;99.90;;;;;;5030817;28;20482;-50
2021/03/02 06:55:40;;;;;;;29.10;16.30;;;0.60;99.90;;;;;;5039907;28;20516;-50
2021/03/02 06:58:21;;;;;;;34.80;16.07;;;0.60;99.90;;;;;;5050172;28;20477;-50
2021/03/02 07:00:50;;;;;;;32.33;16.63;;;1.20;99.90;;;;;;5050386;28;20447;-49
2021/03/02 07:03:27;;;;;;;29.50;16.57;;;1.70;99.90;;;;;;5050465;28;20791;-50
2021/03/02 07:05:56;;;;;;;28.47;15.60;;;2.10;99.90;;;;;;5050440;28;20516;-50
2021/03/02 07:08:23;;;;;;;34.93;17.37;;;2.30;99.90;;;;;;5044456;28;20455;-49
2021/03/02 07:10:53;;;;;;;30.43;16.50;;;2.60;99.90;;;;;;5030381;28;20452;-49
2021/03/02 07:13:21;;;;;;;32.27;15.93;;;2.70;99.90;;;;;;5031296;28;20456;-50
2021/03/02 07:15:51;;;;;;;34.40;16.93;;;2.90;99.90;;;;;;5033983;28;20480;-49
2021/03/02 07:18:21;;;;;;;35.83;18.37;;;3.00;99.90;;;;;;5052313;28;20636;-50
2021/03/02 07:20:50;;;;;;;31.80;19.40;;;3.20;99.90;;;;;;5054282;28;20450;-50
2021/03/02 07:23:18;;;;;;;32.03;17.50;;;3.10;99.90;;;;;;5054053;28;20499;-50
2021/03/02 07:25:47;;;;;;;32.07;18.10;;;3.20;99.90;;;;;;5053777;28;20463;-50
2021/03/02 07:28:17;;;;;;;33.93;19.00;;;2.90;99.90;;;;;;5036789;28;20522;-50
2021/03/02 07:30:46;;;;;;;31.30;18.97;;;2.80;99.90;;;;;;5034314;28;20961;-50
2021/03/02 07:33:13;;;;;;;33.50;18.43;;;2.90;99.90;;;;;;5052082;28;20446;-50
2021/03/02 07:35:41;;;;;;;31.77;19.80;;;2.90;99.90;;;;;;5053818;28;20497;-50
2021/03/02 07:38:19;;;;;;;34.73;20.37;;;3.30;99.90;;;;;;5053426;28;20964;-50
2021/03/02 07:40:48;;;;;;;33.63;19.80;;;3.60;99.90;;;;;;5054051;28;20505;-50
2021/03/02 07:43:30;;;;;;;30.80;17.90;;;3.10;99.90;;;;;;5053882;28;20447;-50
2021/03/02 07:45:58;;;;;;;37.60;19.70;;;3.60;99.90;;;;;;5048704;28;20447;-50
2021/03/02 07:48:32;;;;;;;28.20;16.97;;;3.70;99.90;;;;;;5052289;28;20448;-50
2021/03/02 07:51:19;;;;;;;29.13;16.43;;;4.10;99.90;;;;;;5053441;28;20874;-50
2021/03/02 07:53:47;;;;;;;48.93;19.00;;;4.70;99.90;;;;;;5052987;28;20462;-51
2021/03/02 07:56:26;;;;;;;27.50;14.97;;;5.10;99.90;;;;;;5053464;28;20945;-50
2021/03/02 07:59:19;;;;;;;26.90;15.20;;;5.70;99.90;;;;;;5053784;28;20458;-50
2021/03/02 08:02:15;;;;;;;28.50;16.50;;;6.40;99.90;;;;;;5058859;28;20466;-50
2021/03/02 08:04:43;;;;;;;26.60;14.57;;;6.60;99.90;;;;;;5071931;28;20535;-50
2021/03/02 08:07:34;;;;;;;26.20;14.13;;;7.00;99.90;;;;;;5069878;28;20454;-50
2021/03/02 08:10:00;;;;;;;30.40;14.80;;;7.50;99.90;;;;;;5050993;28;20466;-50
2021/03/02 08:12:34;;;;;;;29.40;14.63;;;7.50;99.90;;;;;;5059606;28;20455;-50
2021/03/02 08:15:24;;;;;;;21.60;13.13;;;7.90;99.90;;;;;;5064377;28;20488;-50
2021/03/02 08:17:50;;;;;;;23.10;12.37;;;8.10;99.90;;;;;;5065947;28;20998;-50
2021/03/02 08:20:17;;;;;;;19.80;11.90;;;7.90;99.90;;;;;;5055292;28;20455;-50
2021/03/02 08:22:48;;;;;;;19.40;10.73;;;8.10;99.90;;;;;;5055588;28;20466;-49
2021/03/02 08:25:29;;;;;;;20.03;10.90;;;7.90;99.90;;;;;;5053186;28;20488;-50
2021/03/02 08:27:59;;;;;;;18.23;10.23;;;8.10;99.90;;;;;;5052920;28;20451;-50
2021/03/02 08:30:29;;;;;;;16.27;10.20;;;8.30;99.90;;;;;;5064590;28;20463;-50
2021/03/02 08:32:57;;;;;;;16.60;9.70;;;8.10;99.90;;;;;;5068301;28;20473;-50
2021/03/02 08:35:27;;;;;;;16.70;9.27;;;8.00;99.90;;;;;;5071553;28;20481;-50
2021/03/02 08:37:55;;;;;;;15.70;9.70;;;8.40;99.90;;;;;;5060913;28;20554;-50
2021/03/02 08:40:23;;;;;;;21.73;9.93;;;8.20;99.90;;;;;;5051813;28;20468;-50
2021/03/02 08:43:01;;;;;;;16.80;10.20;;;8.50;99.90;;;;;;5036207;28;20447;-50
2021/03/02 08:45:30;;;;;;;17.97;10.37;;;8.60;99.90;;;;;;5043755;28;20483;-50
2021/03/02 08:48:13;;;;;;;17.17;10.63;;;8.90;99.90;;;;;;5038424;28;20449;-51
2021/03/02 08:50:39;;;;;;;17.30;10.80;;;8.30;99.90;;;;;;5035973;28;20444;-50
2021/03/02 08:53:34;;;;;;;20.13;10.57;;;8.30;99.90;;;;;;5052360;28;20513;-50
2021/03/02 08:56:02;;;;;;;16.77;10.67;;;9.40;99.90;;;;;;5052232;28;20435;-50
2021/03/02 08:58:34;;;;;;;15.33;9.97;;;10.00;99.90;;;;;;5052368;28;20967;-50
2021/03/02 09:01:04;;;;;;;16.27;10.37;;;10.30;99.90;;;;;;5052453;28;20455;-51
2021/03/02 09:03:31;;;;;;;16.20;10.27;;;11.10;99.90;;;;;;5052242;28;20469;-51
2021/03/02 09:06:09;;;;;;;15.70;11.13;;;11.70;99.90;;;;;;5047863;28;20451;-51
2021/03/02 09:08:45;;;;;;;14.73;11.00;;;12.30;99.90;;;;;;5049649;28;20451;-51
2021/03/02 09:11:12;;;;;;;17.70;9.67;;;11.90;99.90;;;;;;5050437;28;20561;-51
2021/03/02 09:13:41;;;;;;;17.43;10.77;;;12.60;99.90;;;;;;5051826;28;20475;-50
2021/03/02 09:16:28;;;;;;;17.03;10.80;;;12.50;99.90;;;;;;5051851;28;20448;-51
2021/03/02 09:19:00;;;;;;;16.07;9.80;;;12.20;99.90;;;;;;5089492;22;20488;-52
2021/03/02 09:21:26;;;;;;;16.03;10.90;;;11.60;99.90;;;;;;5112542;28;20441;-52
2021/03/02 09:23:53;;;;;;;15.87;9.90;;;12.10;99.90;;;;;;5112679;28;20473;-52
2021/03/02 09:26:20;;;;;;;14.10;10.10;;;12.10;99.90;;;;;;5112020;28;20449;-52
2021/03/02 09:28:52;;;;;;;15.33;11.20;;;12.00;99.90;;;;;;5111812;28;20476;-51
2021/03/02 09:31:19;;;;;;;14.33;10.50;;;11.70;99.90;;;;;;5104025;28;20472;-52
2021/03/02 09:33:48;;;;;;;17.60;10.30;;;12.30;99.90;;;;;;5107240;28;20491;-52
2021/03/02 09:36:16;;;;;;;17.10;10.83;;;12.60;99.90;;;;;;5100329;28;20522;-52
2021/03/02 09:38:42;;;;;;;16.48;11.30;;;12.80;99.90;;;;;;5097688;28;20418;-52
2021/03/02 09:41:09;;;;;;;18.13;10.80;;;12.90;99.90;;;;;;5089675;28;20617;-52
2021/03/02 09:43:37;;;;;;;16.40;11.63;;;12.90;99.90;;;;;;5091108;28;20477;-52
2021/03/02 09:46:04;;;;;;;17.57;11.50;;;12.90;99.90;;;;;;5103136;28;20457;-51
2021/03/02 09:48:48;;;;;;;19.20;12.70;;;12.70;99.90;;;;;;5099514;28;20480;-52
2021/03/02 09:51:31;;;;;;;19.60;13.30;;;12.80;99.90;;;;;;5094825;28;20838;-52
2021/03/02 09:54:16;;;;;;;18.63;11.50;;;12.30;99.90;;;;;;5104074;28;20506;-51
2021/03/02 09:56:46;;;;;;;18.00;11.90;;;11.70;99.90;;;;;;5110039;28;20514;-51
2021/03/02 09:59:21;;;;;;;55.23;14.20;;;12.10;99.90;;;;;;5109936;28;20465;-52
2021/03/02 10:01:48;;;;;;;20.70;12.90;;;12.70;99.90;;;;;;5089699;28;20882;-52
2021/03/02 10:04:16;;;;;;;19.93;12.80;;;12.50;99.90;;;;;;5089968;28;20561;-51
2021/03/02 10:06:43;;;;;;;19.17;12.50;;;12.70;99.90;;;;;;5104307;28;20457;-52
2021/03/02 10:09:21;;;;;;;18.03;12.40;;;13.40;99.90;;;;;;5100468;28;20508;-52
2021/03/02 10:11:48;;;;;;;17.33;12.93;;;12.50;99.90;;;;;;5092086;28;20473;-51
2021/03/02 10:14:14;;;;;;;20.80;12.63;;;13.00;99.90;;;;;;5090991;28;20551;-53
2021/03/02 10:16:42;;;;;;;22.07;12.60;;;13.70;99.90;;;;;;5109757;28;20461;-52
2021/03/02 10:19:19;;;;;;;20.67;12.93;;;13.90;99.90;;;;;;5110239;28;20572;-52
2021/03/02 10:21:47;;;;;;;19.93;13.40;;;13.00;99.90;;;;;;5106682;28;20510;-51
2021/03/02 10:24:22;;;;;;;17.97;12.40;;;12.40;99.90;;;;;;5091549;28;20477;-52
2021/03/02 10:26:49;;;;;;;21.50;13.50;;;13.10;99.90;;;;;;5110354;28;20505;-52
2021/03/02 10:29:16;;;;;;;22.43;14.00;;;13.00;99.90;;;;;;5107996;28;20870;-52
2021/03/02 10:31:43;;;;;;;24.27;14.90;;;12.90;99.90;;;;;;5104699;28;20465;-52
2021/03/02 10:34:13;;;;;;;22.13;15.00;;;12.40;99.90;;;;;;5107948;28;20529;-52
2021/03/02 10:36:42;;;;;;;30.53;15.10;;;12.80;99.90;;;;;;5103769;28;20531;-52
2021/03/02 10:39:10;;;;;;;32.10;15.73;;;12.80;99.90;;;;;;5106552;28;20480;-52
2021/03/02 10:41:37;;;;;;;23.40;15.30;;;13.10;99.90;;;;;;5101479;28;20488;-52
2021/03/02 10:44:04;;;;;;;20.90;14.23;;;13.20;99.90;;;;;;5103204;28;20473;-52
2021/03/02 10:46:31;;;;;;;24.53;16.20;;;13.50;99.90;;;;;;5095551;28;20491;-52
2021/03/02 10:48:59;;;;;;;24.43;16.07;;;13.80;99.90;;;;;;5095011;28;20488;-52
2021/03/02 10:51:26;;;;;;;26.93;16.57;;;13.70;99.90;;;;;;5093651;28;20483;-52
2021/03/02 10:53:53;;;;;;;24.67;16.53;;;14.00;99.90;;;;;;5091444;28;20463;-52
2021/03/02 10:56:20;;;;;;;26.23;16.73;;;13.10;99.90;;;;;;5093814;28;20453;-52
2021/03/02 10:58:48;;;;;;;25.93;17.97;;;13.30;99.90;;;;;;5101508;28;20487;-52
2021/03/02 11:01:16;;;;;;;27.50;17.33;;;13.30;99.90;;;;;;5091544;28;20457;-51
2021/03/02 11:03:43;;;;;;;26.67;17.10;;;13.40;99.90;;;;;;5094539;28;20493;-51
2021/03/02 11:06:11;;;;;;;29.00;18.10;;;13.20;99.90;;;;;;5089170;28;20461;-53
2021/03/02 11:08:38;;;;;;;26.30;17.83;;;12.90;99.90;;;;;;5093790;28;20551;-51
2021/03/02 11:11:05;;;;;;;26.60;16.43;;;12.60;99.90;;;;;;5094548;28;20470;-51
2021/03/02 11:13:32;;;;;;;25.70;16.90;;;12.30;99.90;;;;;;5089077;28;20465;-51
2021/03/02 11:15:59;;;;;;;25.37;17.00;;;11.60;99.90;;;;;;5092783;28;20454;-51
2021/03/02 11:18:25;;;;;;;28.37;17.40;;;11.00;99.90;;;;;;5094355;28;21011;-52
2021/03/02 11:20:52;;;;;;;29.40;19.40;;;11.40;99.90;;;;;;5107848;28;20993;-51
2021/03/02 11:23:19;;;;;;;33.10;19.37;;;11.40;99.90;;;;;;5096643;28;20465;-50
2021/03/02 11:25:45;;;;;;;26.60;17.50;;;11.50;99.90;;;;;;5091087;28;20489;-51
2021/03/02 11:28:13;;;;;;;27.40;17.57;;;11.50;99.90;;;;;;5092805;28;20457;-52
2021/03/02 11:30:41;;;;;;;26.03;18.20;;;11.70;99.90;;;;;;5091749;28;20602;-52
2021/03/02 11:33:08;;;;;;;30.97;17.53;;;11.30;99.90;;;;;;5093349;28;20485;-52
2021/03/02 11:35:35;;;;;;;29.17;17.90;;;10.60;99.90;;;;;;5091392;28;20508;-52
2021/03/02 11:38:03;;;;;;;35.30;19.90;;;10.90;99.90;;;;;;5095678;28;20461;-51
2021/03/02 11:40:31;;;;;;;32.10;18.50;;;10.60;99.90;;;;;;5096302;28;20500;-51
2021/03/02 11:42:58;;;;;;;33.27;19.40;;;10.30;99.90;;;;;;5096229;28;20469;-51
2021/03/02 11:45:27;;;;;;;28.93;18.70;;;10.50;99.90;;;;;;5092059;28;20476;-52
2021/03/02 11:47:54;;;;;;;29.73;18.03;;;10.80;99.90;;;;;;5095428;28;20900;-51
2021/03/02 11:50:21;;;;;;;29.07;18.17;;;11.10;99.90;;;;;;5093026;28;20891;-51
2021/03/02 11:52:48;;;;;;;36.33;19.13;;;11.10;99.90;;;;;;5099204;28;20460;-51
2021/03/02 11:55:16;;;;;;;34.20;20.77;;;11.10;99.90;;;;;;5095118;28;20529;-51
2021/03/02 11:57:43;;;;;;;28.73;18.40;;;11.00;99.90;;;;;;5089248;28;20461;-51
2021/03/02 12:00:12;;;;;;;33.00;20.07;;;11.40;99.90;;;;;;5097263;28;20563;-51
2021/03/02 12:02:39;;;;;;;28.87;17.93;;;11.70;99.90;;;;;;5101225;28;20461;-51
2021/03/02 12:05:07;;;;;;;31.20;18.30;;;11.60;99.90;;;;;;5099036;28;20519;-51
2021/03/02 12:07:34;;;;;;;35.03;19.63;;;11.70;99.90;;;;;;5105657;28;20449;-50
2021/03/02 12:10:00;;;;;;;31.03;17.50;;;11.80;99.90;;;;;;5101742;28;20481;-51
2021/03/02 12:12:27;;;;;;;28.43;17.93;;;12.00;99.90;;;;;;5098214;28;20472;-51
2021/03/02 12:14:53;;;;;;;32.17;18.43;;;12.10;99.90;;;;;;5096358;28;20507;-51
2021/03/02 12:17:20;;;;;;;29.10;17.90;;;12.30;99.90;;;;;;5095216;28;20457;-51
2021/03/02 12:19:47;;;;;;;30.17;17.03;;;12.50;99.90;;;;;;5096087;28;20583;-51
2021/03/02 12:22:14;;;;;;;27.17;17.60;;;12.40;99.90;;;;;;5095724;28;21004;-50
2021/03/02 12:24:40;;;;;;;28.30;17.30;;;11.80;99.90;;;;;;5095844;28;20522;-50
2021/03/02 12:27:08;;;;;;;26.07;15.97;;;11.70;99.90;;;;;;5098257;28;20503;-51
2021/03/02 12:29:34;;;;;;;27.37;16.60;;;11.90;99.90;;;;;;5095436;28;20481;-50
2021/03/02 12:32:01;;;;;;;32.53;15.83;;;12.10;99.90;;;;;;5093578;28;20460;-50
2021/03/02 12:34:27;;;;;;;27.57;15.10;;;12.00;99.90;;;;;;5095837;28;20454;-50
2021/03/02 12:36:56;;;;;;;26.80;15.47;;;12.20;99.90;;;;;;5098453;28;20458;-50
2021/03/02 12:39:22;;;;;;;23.10;14.93;;;12.00;99.90;;;;;;5096650;28;20985;-50
2021/03/02 12:41:49;;;;;;;24.07;15.77;;;11.80;99.90;;;;;;5092915;28;20485;-50
2021/03/02 12:44:15;;;;;;;24.10;14.77;;;12.00;99.90;;;;;;5095217;28;20482;-50